createdAt,value
2022-10-05T00:00:03.931Z,97
2022-10-05T00:05:10.049Z,97
2022-10-05T00:10:16.169Z,99
2022-10-05T00:15:22.286Z,97
2022-10-05T00:20:28.391Z,97
2022-10-05T00:25:33.518Z,96
2022-10-05T00:30:39.638Z,97
2022-10-05T00:35:45.737Z,97
2022-10-05T00:40:51.861Z,95
2022-10-05T00:45:57.966Z,95
2022-10-05T00:51:04.085Z,96
2022-10-05T00:56:10.204Z,96.5
2022-10-05T01:01:16.313Z,98
2022-10-05T01:06:22.425Z,98
2022-10-05T01:11:28.531Z,99.5
2022-10-05T01:16:34.650Z,99.5
2022-10-05T01:21:40.764Z,98
2022-10-05T01:26:46.873Z,98
2022-10-05T01:31:52.002Z,98.5
2022-10-05T01:36:58.109Z,99.5
2022-10-05T01:42:04.221Z,99
2022-10-05T01:47:10.348Z,99.5
2022-10-05T01:52:16.463Z,99
2022-10-05T01:57:22.561Z,99.5
2022-10-05T02:02:28.672Z,99.5
2022-10-05T02:07:34.820Z,99.5
2022-10-05T02:12:40.911Z,99.5
2022-10-05T02:17:47.040Z,98.5
2022-10-05T02:22:53.134Z,99.5
2022-10-05T02:27:59.255Z,99.5
2022-10-05T02:33:05.371Z,99.5
2022-10-05T02:38:10.506Z,99.5
2022-10-05T02:43:16.586Z,99.5
2022-10-05T02:48:22.742Z,99.5
2022-10-05T02:53:28.834Z,99.5
2022-10-05T02:58:34.943Z,99.5
2022-10-05T03:03:41.122Z,99.5
2022-10-05T03:08:46.230Z,99.5
2022-10-05T03:13:52.299Z,99.5
2022-10-05T03:18:58.418Z,99.5
2022-10-05T03:24:04.537Z,99.5
2022-10-05T03:29:10.639Z,99.5
2022-10-05T03:34:16.753Z,99.5
2022-10-05T03:39:22.872Z,99.5
2022-10-05T03:44:29.004Z,99.5
2022-10-05T03:49:35.089Z,99.5
2022-10-05T03:54:41.210Z,99
2022-10-05T03:59:47.326Z,99.5
2022-10-05T04:04:53.423Z,99
2022-10-05T04:09:59.546Z,98.5
2022-10-05T04:15:04.681Z,98
2022-10-05T04:20:10.790Z,98
2022-10-05T04:25:16.898Z,98.5
2022-10-05T04:30:23.019Z,98
2022-10-05T04:35:29.121Z,98
2022-10-05T04:40:35.226Z,98
2022-10-05T04:45:41.347Z,97.5
2022-10-05T04:50:47.472Z,97.5
2022-10-05T04:55:53.572Z,98.5
2022-10-05T05:00:59.691Z,99.5
2022-10-05T05:06:05.813Z,98.5
2022-10-05T05:11:11.904Z,99.5
2022-10-05T05:16:18.036Z,98.5
2022-10-05T05:21:23.187Z,99
2022-10-05T05:26:29.285Z,98.5
2022-10-05T05:31:35.392Z,99.5
2022-10-05T05:36:41.523Z,99.5
2022-10-05T05:41:47.672Z,99.5
2022-10-05T05:46:53.718Z,99
2022-10-05T05:51:59.856Z,98.5
2022-10-05T05:57:05.962Z,99.5
2022-10-05T06:02:12.176Z,97.5
2022-10-05T06:07:18.252Z,97
2022-10-05T06:12:24.307Z,96
2022-10-05T06:17:30.408Z,94
2022-10-05T06:22:36.502Z,93
2022-10-05T06:27:41.741Z,93
2022-10-05T06:32:47.798Z,92.5
2022-10-05T06:37:53.950Z,91
2022-10-05T06:43:00.004Z,90
2022-10-05T06:48:06.185Z,89
2022-10-05T06:53:12.232Z,87
2022-10-05T06:58:18.351Z,86.5
2022-10-05T07:03:24.476Z,85
2022-10-05T07:08:30.541Z,86.5
2022-10-05T07:13:36.654Z,84.5
2022-10-05T07:18:42.766Z,84.5
2022-10-05T07:23:48.971Z,82
2022-10-05T07:28:55.008Z,83
2022-10-05T07:34:00.126Z,80
2022-10-05T07:39:06.240Z,81.5
2022-10-05T07:44:12.358Z,81.5
2022-10-05T07:49:18.556Z,81
2022-10-05T07:54:24.591Z,82
2022-10-05T07:59:30.791Z,78
2022-10-05T08:04:36.837Z,75.5
2022-10-05T08:09:43.020Z,76.5
2022-10-05T08:14:49.009Z,74.5
2022-10-05T08:19:55.125Z,73.5
2022-10-05T08:25:01.219Z,74
2022-10-05T08:30:07.357Z,72.5
2022-10-05T08:35:13.437Z,70
2022-10-05T08:40:18.578Z,66
2022-10-05T08:45:24.684Z,65.5
2022-10-05T08:50:30.797Z,63
2022-10-05T08:55:36.921Z,62
2022-10-05T09:00:43.026Z,63
2022-10-05T09:05:49.135Z,64.5
2022-10-05T09:10:55.245Z,60.5
2022-10-05T09:16:01.357Z,59
2022-10-05T09:21:07.470Z,58.5
2022-10-05T09:26:13.674Z,62.5
2022-10-05T09:31:19.687Z,66
2022-10-05T09:36:25.806Z,66
2022-10-05T09:41:31.919Z,68.5
2022-10-05T09:46:37.116Z,64.5
2022-10-05T09:51:43.294Z,59.5
2022-10-05T09:56:49.276Z,59.5
2022-10-05T10:01:55.440Z,58.5
2022-10-05T10:07:01.511Z,58.5
2022-10-05T10:12:07.728Z,54
2022-10-05T10:17:13.744Z,57.5
2022-10-05T10:22:19.903Z,64
2022-10-05T10:27:25.997Z,63.5
2022-10-05T10:32:32.110Z,64
2022-10-05T10:37:38.275Z,63.5
2022-10-05T10:42:44.378Z,65.5
2022-10-05T10:47:50.403Z,63.5
2022-10-05T10:52:55.532Z,64
2022-10-05T10:58:01.789Z,66
2022-10-05T11:03:07.798Z,63.5
2022-10-05T11:08:13.863Z,65
2022-10-05T11:13:20.001Z,61.5
2022-10-05T11:18:26.091Z,62.5
2022-10-05T11:23:32.193Z,63.5
2022-10-05T11:28:38.338Z,60
2022-10-05T11:33:44.459Z,62.5
2022-10-05T11:38:50.532Z,64.5
2022-10-05T11:43:56.657Z,63.5
2022-10-05T11:49:02.746Z,65.5
2022-10-05T11:54:08.920Z,64
2022-10-05T11:59:14.057Z,66.5
2022-10-05T12:04:20.141Z,64.5
2022-10-05T12:09:26.212Z,66
2022-10-05T12:14:32.370Z,64.5
2022-10-05T12:19:38.434Z,63
2022-10-05T12:24:44.533Z,62.5
2022-10-05T12:29:50.657Z,62.5
2022-10-05T12:34:56.781Z,61.5
2022-10-05T12:40:02.877Z,62
2022-10-05T12:45:08.987Z,63
2022-10-05T12:50:15.095Z,61
2022-10-05T12:55:21.219Z,61
2022-10-05T13:00:27.316Z,60.5
2022-10-05T13:05:32.435Z,62
2022-10-05T13:10:38.546Z,58
2022-10-05T13:15:44.676Z,58
2022-10-05T13:20:50.789Z,59
2022-10-05T13:25:56.896Z,60.5
2022-10-05T13:31:03.001Z,58.5
2022-10-05T13:36:09.110Z,57.5
2022-10-05T13:41:15.215Z,57.5
2022-10-05T13:46:21.362Z,59.5
2022-10-05T13:51:27.446Z,60
2022-10-05T13:56:33.551Z,56.5
2022-10-05T14:01:39.703Z,55.5
2022-10-05T14:06:45.827Z,52.5
2022-10-05T14:11:50.917Z,54
2022-10-05T14:16:57.023Z,51
2022-10-05T14:22:03.137Z,48.5
2022-10-05T14:27:09.249Z,48
2022-10-05T14:37:21.465Z,48
2022-10-05T14:42:27.571Z,49
2022-10-05T14:47:33.697Z,48
2022-10-05T14:52:39.802Z,48
2022-10-05T14:57:45.904Z,47
2022-10-05T15:02:52.107Z,46.5
2022-10-05T15:07:58.141Z,47
2022-10-05T15:13:04.248Z,52.5
2022-10-05T15:18:09.398Z,61
2022-10-05T15:23:15.498Z,61.5
2022-10-05T15:28:21.594Z,62
2022-10-05T15:33:27.728Z,63
2022-10-05T15:38:33.805Z,63
2022-10-05T15:43:39.928Z,63.5
2022-10-05T15:48:46.045Z,65
2022-10-05T15:53:52.136Z,64.5
2022-10-05T15:58:58.261Z,66.5
2022-10-05T16:04:04.364Z,64
2022-10-05T16:09:10.486Z,67
2022-10-05T16:14:16.592Z,68.5
2022-10-05T16:19:22.705Z,69
2022-10-05T16:24:27.878Z,70
2022-10-05T16:29:33.933Z,72.5
2022-10-05T16:34:40.077Z,72.5
2022-10-05T16:39:46.167Z,71.5
2022-10-05T16:44:52.277Z,72.5
2022-10-05T16:49:58.416Z,73.5
2022-10-05T16:55:04.499Z,73.5
2022-10-05T17:00:10.618Z,74
2022-10-05T17:05:16.741Z,75.5
2022-10-05T17:10:22.836Z,76.5
2022-10-05T17:15:28.951Z,77.5
2022-10-05T17:20:35.073Z,78
2022-10-05T17:25:41.180Z,78
2022-10-05T17:30:46.294Z,79.5
2022-10-05T17:35:52.408Z,81
2022-10-05T17:40:58.523Z,80.5
2022-10-05T17:46:04.670Z,80
2022-10-05T17:51:10.785Z,79
2022-10-05T17:56:16.888Z,77
2022-10-05T18:01:22.998Z,77.5
2022-10-05T18:06:29.111Z,76.5
2022-10-05T18:11:35.234Z,77.5
2022-10-05T18:16:41.408Z,76.5
2022-10-05T18:21:47.463Z,76.5
2022-10-05T18:26:53.558Z,77
2022-10-05T18:31:59.663Z,77
2022-10-05T18:37:04.821Z,77.5
2022-10-05T18:42:10.931Z,79
2022-10-05T18:52:23.145Z,79.5
2022-10-05T18:57:29.238Z,81
2022-10-05T19:02:35.366Z,82.5
2022-10-05T19:07:41.477Z,82.5
2022-10-05T19:12:47.588Z,83.5
2022-10-05T19:17:53.684Z,82.5
2022-10-05T19:22:59.919Z,84.5
2022-10-05T19:28:05.951Z,86
2022-10-05T19:33:12.065Z,86.5
2022-10-05T19:38:18.227Z,87
2022-10-05T19:43:23.319Z,87
2022-10-05T19:48:29.425Z,90
2022-10-05T19:53:35.527Z,92.5
2022-10-05T19:58:41.637Z,96
2022-10-05T20:03:47.798Z,97.5
2022-10-05T20:08:53.908Z,97
2022-10-05T20:13:59.035Z,98.5
2022-10-05T20:19:05.153Z,97.5
2022-10-05T20:24:11.259Z,96
2022-10-05T20:29:17.376Z,94
2022-10-05T20:34:23.532Z,92
2022-10-05T20:39:29.607Z,90.5
2022-10-05T20:44:35.746Z,89.5
2022-10-05T20:49:41.822Z,89
2022-10-05T20:54:47.935Z,89
2022-10-05T20:59:54.100Z,90
2022-10-05T21:05:00.206Z,90.5
2022-10-05T21:10:06.437Z,92.5
2022-10-05T21:15:12.428Z,92.5
2022-10-05T21:20:17.570Z,92
2022-10-05T21:25:23.680Z,92
2022-10-05T21:30:29.784Z,94.5
2022-10-05T21:35:35.991Z,94.5
2022-10-05T21:40:42.009Z,95
2022-10-05T21:45:48.130Z,94.5
2022-10-05T21:50:54.232Z,95.5
2022-10-05T21:56:00.352Z,94.5
2022-10-05T22:01:06.461Z,94
2022-10-05T22:06:12.657Z,93
2022-10-05T22:11:18.720Z,92
2022-10-05T22:16:24.799Z,93.5
2022-10-05T22:21:30.890Z,92
2022-10-05T22:26:36.026Z,92
2022-10-05T22:31:42.143Z,91.5
2022-10-05T22:36:48.262Z,90.5
2022-10-05T22:41:54.362Z,91
2022-10-05T22:47:00.473Z,93.5
2022-10-05T22:52:06.596Z,94
2022-10-05T22:57:12.710Z,94.5
2022-10-05T23:02:18.845Z,94.5
2022-10-05T23:07:24.921Z,96
2022-10-05T23:12:31.058Z,96.5
2022-10-05T23:17:37.141Z,98
2022-10-05T23:22:43.246Z,96.5
2022-10-05T23:27:49.392Z,97.5
2022-10-05T23:32:54.510Z,97.5
2022-10-05T23:38:00.628Z,97.5
2022-10-05T23:43:06.727Z,97.5
2022-10-05T23:48:12.845Z,94.5
2022-10-05T23:53:18.951Z,94
2022-10-05T23:58:25.058Z,93
